createdAt,value
2018-04-29T00:01:58.118Z,11.60
2018-04-29T00:04:26.470Z,11.60
2018-04-29T00:06:54.739Z,11.60
2018-04-29T00:09:23.740Z,11.60
2018-04-29T00:11:52.766Z,11.60
2018-04-29T00:14:21.765Z,11.60
2018-04-29T00:16:50.784Z,11.60
2018-04-29T00:19:19.019Z,11.50
2018-04-29T00:21:47.288Z,11.50
2018-04-29T00:24:17.027Z,11.40
2018-04-29T00:26:45.272Z,11.40
2018-04-29T00:29:14.272Z,11.40
2018-04-29T00:31:43.295Z,11.40
2018-04-29T00:34:11.559Z,11.40
2018-04-29T00:36:40.573Z,11.40
2018-04-29T00:39:08.816Z,11.40
2018-04-29T00:41:37.131Z,11.40
2018-04-29T00:44:05.374Z,11.40
2018-04-29T00:46:33.680Z,11.40
2018-04-29T00:49:02.033Z,11.40
2018-04-29T00:51:48.163Z,11.40
2018-04-29T00:54:17.167Z,11.50
2018-04-29T00:56:45.444Z,11.40
2018-04-29T00:59:13.686Z,11.50
2018-04-29T01:01:42.714Z,11.50
2018-04-29T01:04:11.743Z,11.60
2018-04-29T01:06:40.015Z,11.50
2018-04-29T01:09:08.414Z,11.60
2018-04-29T01:11:36.666Z,11.60
2018-04-29T01:14:04.979Z,11.60
2018-04-29T01:16:34.003Z,11.60
2018-04-29T01:19:02.275Z,11.50
2018-04-29T01:21:31.295Z,11.50
2018-04-29T01:23:59.574Z,11.50
2018-04-29T01:26:28.671Z,11.50
2018-04-29T01:28:57.686Z,11.50
2018-04-29T01:31:27.516Z,11.50
2018-04-29T01:33:56.511Z,11.50
2018-04-29T01:36:25.623Z,11.50
2018-04-29T01:38:54.614Z,11.40
2018-04-29T01:41:22.884Z,11.40
2018-04-29T01:43:51.880Z,10.40
2018-04-29T01:46:20.126Z,11.30
2018-04-29T01:48:49.146Z,11.40
2018-04-29T01:51:17.394Z,11.40
2018-04-29T01:53:45.648Z,11.40
2018-04-29T01:56:13.903Z,11.40
2018-04-29T01:58:42.159Z,11.40
2018-04-29T02:01:10.484Z,11.40
2018-04-29T02:03:38.775Z,11.40
2018-04-29T02:06:07.010Z,11.40
2018-04-29T02:08:35.269Z,11.30
2018-04-29T02:11:03.519Z,11.40
2018-04-29T02:13:32.560Z,11.40
2018-04-29T02:16:00.809Z,11.30
2018-04-29T02:18:29.072Z,11.30
2018-04-29T02:20:57.311Z,11.30
2018-04-29T02:23:25.567Z,11.30
2018-04-29T02:25:54.596Z,11.30
2018-04-29T02:28:23.679Z,11.30
2018-04-29T02:30:52.019Z,11.30
2018-04-29T02:33:20.376Z,11.30
2018-04-29T02:35:49.495Z,11.30
2018-04-29T02:38:18.595Z,11.30
2018-04-29T02:40:47.660Z,11.20
2018-04-29T02:43:15.907Z,11.20
2018-04-29T02:45:44.155Z,11.10
2018-04-29T02:48:12.406Z,11.20
2018-04-29T02:50:41.488Z,11.10
2018-04-29T02:53:10.522Z,11.10
2018-04-29T02:55:38.767Z,11.00
2018-04-29T02:58:07.892Z,10.90
2018-04-29T03:00:36.887Z,10.90
2018-04-29T03:03:06.049Z,10.90
2018-04-29T03:05:34.282Z,10.90
2018-04-29T03:08:03.303Z,10.80
2018-04-29T03:10:32.296Z,10.80
2018-04-29T03:13:01.303Z,10.70
2018-04-29T03:15:30.311Z,10.60
2018-04-29T03:17:59.326Z,10.50
2018-04-29T03:20:28.335Z,10.50
2018-04-29T03:22:57.356Z,10.40
2018-04-29T03:25:25.606Z,10.40
2018-04-29T03:27:53.856Z,10.30
2018-04-29T03:30:22.087Z,10.20
2018-04-29T03:32:51.111Z,10.20
2018-04-29T03:35:20.213Z,10.20
2018-04-29T03:37:49.431Z,10.20
2018-04-29T03:40:18.440Z,10.20
2018-04-29T03:42:47.539Z,10.30
2018-04-29T03:45:16.675Z,10.40
2018-04-29T03:47:44.943Z,10.30
2018-04-29T03:52:42.975Z,10.30
2018-04-29T03:55:11.242Z,10.40
2018-04-29T03:57:58.011Z,10.50
2018-04-29T04:00:55.814Z,10.50
2018-04-29T04:03:41.905Z,10.50
2018-04-29T04:06:10.168Z,10.50
2018-04-29T04:08:38.427Z,10.50
2018-04-29T04:11:07.433Z,10.50
2018-04-29T04:13:36.457Z,10.40
2018-04-29T04:16:05.450Z,10.50
2018-04-29T04:18:34.475Z,10.40
2018-04-29T04:21:02.707Z,10.40
2018-04-29T04:23:31.722Z,10.40
2018-04-29T04:25:59.967Z,10.40
2018-04-29T04:28:28.227Z,10.40
2018-04-29T04:30:57.984Z,10.40
2018-04-29T04:33:26.254Z,10.40
2018-04-29T04:35:55.243Z,10.50
2018-04-29T04:38:24.243Z,10.50
2018-04-29T04:40:52.494Z,10.40
2018-04-29T04:43:20.753Z,10.50
2018-04-29T04:45:49.008Z,10.50
2018-04-29T04:48:17.232Z,10.50
2018-04-29T04:50:45.512Z,10.50
2018-04-29T04:53:13.727Z,10.50
2018-04-29T04:55:41.970Z,10.60
2018-04-29T04:58:10.996Z,10.60
2018-04-29T05:00:39.985Z,10.70
2018-04-29T05:03:08.219Z,10.60
2018-04-29T05:05:36.472Z,10.70
2018-04-29T05:08:05.469Z,10.90
2018-04-29T05:10:35.241Z,11.00
2018-04-29T05:13:03.464Z,11.00
2018-04-29T05:15:31.710Z,11.10
2018-04-29T05:17:59.968Z,11.20
2018-04-29T05:20:28.991Z,11.30
2018-04-29T05:22:57.243Z,11.30
2018-04-29T05:25:25.495Z,11.40
2018-04-29T05:27:53.723Z,11.60
2018-04-29T05:30:22.016Z,12.30
2018-04-29T05:32:50.253Z,13.70
2018-04-29T05:35:18.585Z,15.30
2018-04-29T05:37:46.753Z,16.90
2018-04-29T05:40:15.009Z,18.10
2018-04-29T05:42:43.256Z,19.10
2018-04-29T05:45:11.585Z,20.00
2018-04-29T05:47:39.811Z,20.70
2018-04-29T05:50:08.095Z,21.20
2018-04-29T05:52:36.336Z,21.70
2018-04-29T05:55:05.434Z,22.20
2018-04-29T05:57:34.438Z,23.00
2018-04-29T06:00:03.484Z,23.40
2018-04-29T06:02:31.720Z,23.30
2018-04-29T06:05:00.000Z,23.70
2018-04-29T06:07:28.235Z,24.00
2018-04-29T06:09:56.478Z,24.30
2018-04-29T06:12:24.766Z,24.50
2018-04-29T06:14:53.009Z,24.60
2018-04-29T06:17:21.251Z,23.90
2018-04-29T06:19:49.515Z,23.00
2018-04-29T06:22:17.753Z,21.60
2018-04-29T06:24:46.756Z,19.10
2018-04-29T06:27:16.860Z,18.30
2018-04-29T06:29:46.707Z,17.80
2018-04-29T06:32:15.730Z,17.50
2018-04-29T06:34:44.012Z,17.50
2018-04-29T06:37:14.136Z,17.10
2018-04-29T06:39:43.143Z,17.10
2018-04-29T06:42:11.410Z,17.00
2018-04-29T06:44:41.386Z,17.10
2018-04-29T06:47:09.631Z,17.00
2018-04-29T06:49:37.885Z,17.10
2018-04-29T06:52:06.336Z,17.30
2018-04-29T06:54:35.339Z,17.30
2018-04-29T06:57:04.358Z,17.10
2018-04-29T06:59:32.654Z,17.00
2018-04-29T07:02:00.899Z,16.80
2018-04-29T07:04:30.662Z,16.90
2018-04-29T07:06:58.927Z,16.90
2018-04-29T07:09:28.079Z,17.40
2018-04-29T07:11:56.349Z,17.30
2018-04-29T07:14:25.355Z,17.60
2018-04-29T07:16:54.363Z,17.70
2018-04-29T07:21:52.373Z,17.80
2018-04-29T07:24:21.472Z,18.10
2018-04-29T07:26:49.773Z,18.00
2018-04-29T07:29:18.017Z,18.40
2018-04-29T07:31:47.318Z,18.50
2018-04-29T07:34:15.654Z,18.60
2018-04-29T07:36:44.780Z,19.00
2018-04-29T07:39:13.160Z,18.90
2018-04-29T07:41:41.478Z,19.00
2018-04-29T07:44:09.709Z,18.80
2018-04-29T07:46:37.978Z,18.80
2018-04-29T07:49:06.213Z,18.80
2018-04-29T07:51:35.250Z,19.10
2018-04-29T07:54:03.487Z,19.10
2018-04-29T07:56:33.336Z,19.20
2018-04-29T07:59:02.473Z,19.20
2018-04-29T08:01:30.908Z,19.10
2018-04-29T08:03:59.317Z,19.20
2018-04-29T08:06:28.334Z,19.30
2018-04-29T08:08:57.727Z,19.30
2018-04-29T08:11:26.385Z,19.30
2018-04-29T08:13:54.606Z,19.40
2018-04-29T08:16:24.364Z,19.30
2018-04-29T08:18:52.751Z,19.30
2018-04-29T08:21:21.764Z,19.50
2018-04-29T08:23:50.761Z,19.70
2018-04-29T08:26:19.759Z,19.80
2018-04-29T08:28:48.879Z,19.80
2018-04-29T08:31:18.638Z,20.00
2018-04-29T08:33:48.383Z,19.90
2018-04-29T08:36:16.697Z,19.90
2018-04-29T08:38:44.987Z,19.90
2018-04-29T08:41:13.252Z,19.80
2018-04-29T08:43:41.493Z,20.00
2018-04-29T08:46:09.879Z,20.10
2018-04-29T08:48:39.007Z,20.30
2018-04-29T08:51:07.227Z,20.20
2018-04-29T08:53:35.478Z,20.40
2018-04-29T08:56:03.791Z,20.60
2018-04-29T08:58:32.747Z,20.70
2018-04-29T09:01:01.756Z,20.80
2018-04-29T09:03:30.788Z,20.90
2018-04-29T09:05:59.019Z,20.80
2018-04-29T09:08:27.399Z,21.00
2018-04-29T09:10:55.689Z,20.80
2018-04-29T09:13:23.947Z,20.90
2018-04-29T09:15:52.192Z,20.90
2018-04-29T09:18:20.469Z,21.00
2018-04-29T09:20:48.718Z,21.30
2018-04-29T09:23:17.033Z,21.40
2018-04-29T09:28:14.984Z,21.30
2018-04-29T09:30:43.232Z,21.60
2018-04-29T09:33:11.532Z,21.80
2018-04-29T09:35:39.824Z,21.80
2018-04-29T09:38:08.102Z,21.90
2018-04-29T09:40:36.378Z,22.00
2018-04-29T09:43:04.752Z,22.10
2018-04-29T09:45:33.024Z,22.20
2018-04-29T09:48:02.084Z,22.40
2018-04-29T09:50:30.351Z,22.40
2018-04-29T09:52:58.711Z,22.60
2018-04-29T09:55:27.748Z,22.70
2018-04-29T09:57:56.005Z,22.70
2018-04-29T10:00:26.982Z,22.80
2018-04-29T10:03:00.715Z,22.70
2018-04-29T10:05:29.009Z,22.90
2018-04-29T10:07:57.286Z,23.00
2018-04-29T10:10:25.587Z,23.00
2018-04-29T10:12:53.842Z,23.00
2018-04-29T10:15:22.154Z,23.20
2018-04-29T10:17:51.211Z,23.50
2018-04-29T10:20:19.532Z,23.40
2018-04-29T10:22:47.788Z,23.50
2018-04-29T10:25:16.057Z,23.70
2018-04-29T10:27:44.360Z,23.60
2018-04-29T10:30:12.652Z,23.50
2018-04-29T10:32:41.717Z,23.50
2018-04-29T10:35:10.088Z,23.40
2018-04-29T10:37:38.363Z,23.60
2018-04-29T10:40:07.397Z,23.90
2018-04-29T10:42:35.729Z,23.80
2018-04-29T10:45:04.003Z,24.10
2018-04-29T10:47:32.312Z,24.20
2018-04-29T10:50:00.579Z,24.10
2018-04-29T10:52:28.944Z,24.10
2018-04-29T10:54:57.145Z,24.10
2018-04-29T10:57:25.484Z,24.10
2018-04-29T10:59:54.427Z,24.30
2018-04-29T11:02:22.728Z,24.20
2018-04-29T11:04:51.049Z,24.40
2018-04-29T11:07:19.404Z,24.30
2018-04-29T11:09:47.684Z,24.30
2018-04-29T11:12:15.946Z,24.40
2018-04-29T11:14:44.267Z,24.50
2018-04-29T11:17:12.576Z,24.60
2018-04-29T11:19:40.860Z,24.50
2018-04-29T11:22:09.223Z,24.60
2018-04-29T11:24:37.431Z,24.80
2018-04-29T11:27:05.698Z,24.90
2018-04-29T11:29:33.986Z,25.20
2018-04-29T11:32:02.310Z,25.30
2018-04-29T11:34:30.591Z,25.00
2018-04-29T11:36:58.848Z,24.90
2018-04-29T11:39:27.147Z,24.90
2018-04-29T11:41:55.393Z,25.10
2018-04-29T11:44:23.677Z,25.20
2018-04-29T11:46:51.930Z,25.20
2018-04-29T11:49:20.231Z,25.20
2018-04-29T11:51:48.482Z,25.20
2018-04-29T11:54:17.487Z,25.50
2018-04-29T11:56:46.527Z,25.50
2018-04-29T11:59:14.811Z,25.40
2018-04-29T12:01:43.131Z,25.60
2018-04-29T12:04:11.435Z,25.60
2018-04-29T12:06:39.699Z,25.60
2018-04-29T12:09:07.973Z,25.70
2018-04-29T12:11:36.228Z,25.80
2018-04-29T12:14:05.255Z,26.10
2018-04-29T12:16:33.583Z,26.10
2018-04-29T12:19:02.580Z,26.30
2018-04-29T12:21:30.836Z,26.20
2018-04-29T12:23:59.087Z,26.30
2018-04-29T12:26:27.359Z,26.40
2018-04-29T12:28:55.634Z,26.40
2018-04-29T12:31:23.848Z,26.50
2018-04-29T12:33:52.137Z,26.50
2018-04-29T12:36:20.411Z,26.60
2018-04-29T12:38:48.652Z,26.70
2018-04-29T12:41:16.998Z,26.80
2018-04-29T12:43:45.287Z,26.90
2018-04-29T12:46:13.567Z,27.00
2018-04-29T12:48:41.822Z,27.00
2018-04-29T12:51:10.121Z,27.00
2018-04-29T12:53:38.358Z,27.10
2018-04-29T12:56:07.785Z,27.20
2018-04-29T12:58:36.026Z,27.30
2018-04-29T13:01:04.299Z,27.30
2018-04-29T13:03:32.582Z,27.30
2018-04-29T13:06:00.851Z,27.20
2018-04-29T13:08:29.103Z,27.20
2018-04-29T13:10:57.351Z,27.20
2018-04-29T13:13:25.593Z,27.30
2018-04-29T13:15:53.848Z,27.30
2018-04-29T13:18:22.846Z,27.10
2018-04-29T13:20:51.107Z,27.10
2018-04-29T13:23:19.374Z,27.00
2018-04-29T13:25:48.432Z,27.20
2018-04-29T13:28:16.686Z,27.10
2018-04-29T13:30:45.727Z,27.10
2018-04-29T13:33:13.989Z,27.00
2018-04-29T13:35:43.130Z,27.10
2018-04-29T13:38:12.086Z,27.10
2018-04-29T13:40:41.126Z,27.30
2018-04-29T13:43:09.363Z,27.30
2018-04-29T13:48:07.285Z,27.30
2018-04-29T13:50:36.323Z,27.40
2018-04-29T13:53:04.562Z,27.40
2018-04-29T13:55:32.863Z,27.40
2018-04-29T13:58:01.190Z,27.50
2018-04-29T14:00:29.444Z,27.60
2018-04-29T14:02:57.707Z,27.70
2018-04-29T14:05:25.980Z,27.70
2018-04-29T14:07:54.264Z,27.80
2018-04-29T14:10:23.434Z,27.70
2018-04-29T14:12:51.647Z,27.60
2018-04-29T14:15:19.915Z,27.60
2018-04-29T14:17:48.912Z,27.40
2018-04-29T14:20:17.935Z,27.40
2018-04-29T14:22:46.179Z,27.30
2018-04-29T14:25:14.455Z,27.40
2018-04-29T14:27:43.587Z,27.50
2018-04-29T14:30:12.651Z,27.50
2018-04-29T14:32:40.915Z,27.40
2018-04-29T14:35:09.209Z,27.30
2018-04-29T14:37:38.296Z,27.30
2018-04-29T14:40:06.552Z,27.30
2018-04-29T14:42:36.086Z,27.50
2018-04-29T14:45:04.683Z,27.50
2018-04-29T14:47:35.445Z,27.40
2018-04-29T14:50:04.974Z,27.60
2018-04-29T14:52:34.091Z,27.70
2018-04-29T14:55:02.624Z,27.60
2018-04-29T14:57:31.022Z,27.70
2018-04-29T14:59:59.480Z,27.60
2018-04-29T15:02:28.001Z,27.50
2018-04-29T15:04:56.563Z,27.50
2018-04-29T15:07:24.869Z,27.50
2018-04-29T15:09:55.384Z,27.50
2018-04-29T15:12:24.191Z,27.50
2018-04-29T15:14:54.109Z,27.40
2018-04-29T15:17:23.504Z,27.30
2018-04-29T15:19:52.005Z,27.30
2018-04-29T15:22:21.147Z,26.70
2018-04-29T15:24:50.394Z,26.50
2018-04-29T15:27:18.879Z,26.50
2018-04-29T15:29:47.197Z,26.40
2018-04-29T15:32:15.594Z,26.40
2018-04-29T15:34:44.066Z,26.60
2018-04-29T15:37:13.621Z,26.80
2018-04-29T15:39:43.078Z,27.20
2018-04-29T15:42:11.622Z,27.10
2018-04-29T15:44:40.929Z,27.20
2018-04-29T15:47:09.450Z,27.10
2018-04-29T15:49:37.910Z,27.00
2018-04-29T15:52:06.388Z,26.90
2018-04-29T15:54:34.957Z,26.80
2018-04-29T15:57:03.354Z,26.90
2018-04-29T15:59:31.898Z,26.80
2018-04-29T16:02:00.427Z,26.70
2018-04-29T16:04:29.834Z,26.70
2018-04-29T16:06:59.062Z,26.70
2018-04-29T16:09:29.451Z,26.70
2018-04-29T16:11:57.965Z,26.60
2018-04-29T16:14:30.316Z,26.80
2018-04-29T16:16:58.911Z,26.70
2018-04-29T16:19:27.213Z,26.70
2018-04-29T16:21:55.804Z,26.80
2018-04-29T16:24:24.416Z,26.70
2018-04-29T16:26:53.062Z,26.70
2018-04-29T16:29:21.611Z,26.60
2018-04-29T16:31:50.085Z,26.50
2018-04-29T16:34:18.355Z,26.40
2018-04-29T16:36:47.452Z,26.10
2018-04-29T16:39:16.719Z,26.00
2018-04-29T16:41:46.156Z,25.90
2018-04-29T16:44:15.299Z,25.70
2018-04-29T16:46:44.522Z,25.50
2018-04-29T16:49:12.937Z,25.50
2018-04-29T16:51:42.168Z,25.40
2018-04-29T16:54:11.361Z,25.40
2018-04-29T16:56:40.890Z,25.40
2018-04-29T16:59:09.514Z,25.30
2018-04-29T17:01:38.823Z,25.20
2018-04-29T17:04:07.668Z,25.20
2018-04-29T17:06:38.010Z,25.20
2018-04-29T17:09:06.507Z,25.30
2018-04-29T17:11:35.012Z,25.40
2018-04-29T17:14:03.737Z,25.50
2018-04-29T17:16:33.161Z,25.80
2018-04-29T17:19:01.688Z,26.00
2018-04-29T17:21:30.949Z,26.30
2018-04-29T17:23:59.505Z,26.30
2018-04-29T17:26:28.005Z,26.30
2018-04-29T17:28:58.480Z,26.20
2018-04-29T17:31:27.980Z,26.20
2018-04-29T17:33:56.714Z,25.90
2018-04-29T17:36:26.142Z,25.40
2018-04-29T17:38:55.155Z,25.40
2018-04-29T17:41:24.359Z,25.30
2018-04-29T17:43:52.893Z,25.10
2018-04-29T17:46:21.304Z,24.90
2018-04-29T17:48:49.594Z,24.80
2018-04-29T17:51:17.843Z,24.60
2018-04-29T17:53:46.884Z,24.30
2018-04-29T17:56:15.264Z,24.30
2018-04-29T17:58:43.563Z,24.10
2018-04-29T18:01:11.825Z,24.00
2018-04-29T18:03:40.856Z,23.90
2018-04-29T18:06:09.127Z,23.80
2018-04-29T18:08:38.151Z,23.70
2018-04-29T18:11:06.417Z,23.60
2018-04-29T18:13:35.453Z,23.50
2018-04-29T18:16:03.751Z,23.40
2018-04-29T18:18:32.082Z,23.40
2018-04-29T18:21:01.857Z,23.10
2018-04-29T18:23:30.152Z,23.10
2018-04-29T18:25:58.397Z,23.10
2018-04-29T18:28:26.670Z,23.00
2018-04-29T18:30:54.919Z,23.00
2018-04-29T18:33:23.216Z,22.90
2018-04-29T18:35:51.460Z,22.80
2018-04-29T18:40:50.123Z,22.60
2018-04-29T18:43:18.407Z,22.50
2018-04-29T18:45:46.716Z,22.40
2018-04-29T18:48:15.060Z,22.40
2018-04-29T18:50:43.545Z,22.30
2018-04-29T18:53:11.603Z,22.20
2018-04-29T18:55:39.904Z,22.10
2018-04-29T18:58:08.182Z,22.00
2018-04-29T19:00:37.228Z,21.60
2018-04-29T19:03:06.254Z,21.90
2018-04-29T19:08:39.101Z,21.80
2018-04-29T19:11:08.149Z,21.70
2018-04-29T19:13:36.427Z,21.70
2018-04-29T19:16:04.736Z,21.70
2018-04-29T19:18:33.012Z,21.60
2018-04-29T19:21:01.252Z,21.60
2018-04-29T19:23:29.562Z,21.50
2018-04-29T19:25:57.807Z,21.50
2018-04-29T19:28:27.260Z,21.40
2018-04-29T19:30:56.225Z,21.40
2018-04-29T19:33:25.238Z,21.40
2018-04-29T19:35:54.281Z,21.30
2018-04-29T19:38:22.549Z,21.30
2018-04-29T19:40:51.558Z,21.40
2018-04-29T19:43:19.863Z,21.40
2018-04-29T19:45:48.165Z,21.40
2018-04-29T19:48:17.163Z,21.50
2018-04-29T19:50:45.454Z,21.50
2018-04-29T19:53:13.698Z,21.50
2018-04-29T19:55:42.779Z,21.50
2018-04-29T19:58:11.051Z,21.30
2018-04-29T20:00:39.335Z,21.30
2018-04-29T20:03:07.672Z,21.20
2018-04-29T20:05:35.955Z,21.10
2018-04-29T20:08:04.187Z,21.00
2018-04-29T20:10:32.463Z,21.00
2018-04-29T20:13:00.710Z,21.00
2018-04-29T20:15:28.993Z,20.90
2018-04-29T20:17:57.245Z,20.80
2018-04-29T20:20:25.493Z,20.80
2018-04-29T20:22:53.768Z,20.70
2018-04-29T20:25:22.031Z,20.70
2018-04-29T20:27:50.272Z,20.70
2018-04-29T20:30:18.539Z,20.70
2018-04-29T20:32:48.614Z,20.80
2018-04-29T20:35:16.895Z,20.70
2018-04-29T20:37:45.158Z,20.80
2018-04-29T20:40:14.294Z,20.70
2018-04-29T20:42:44.426Z,20.60
2018-04-29T20:45:13.438Z,20.60
2018-04-29T20:47:41.675Z,20.60
2018-04-29T20:50:10.017Z,20.60
2018-04-29T20:52:38.288Z,20.50
2018-04-29T20:55:07.314Z,20.60
2018-04-29T20:57:35.580Z,20.50
2018-04-29T21:00:04.691Z,20.50
2018-04-29T21:02:33.728Z,20.50
2018-04-29T21:05:02.003Z,20.40
2018-04-29T21:07:30.251Z,20.50
2018-04-29T21:09:58.516Z,20.30
2018-04-29T21:12:26.772Z,20.20
2018-04-29T21:14:55.024Z,20.10
2018-04-29T21:17:23.339Z,20.10
2018-04-29T21:19:51.543Z,20.00
2018-04-29T21:22:19.785Z,19.90
2018-04-29T21:24:48.021Z,19.80
2018-04-29T21:27:16.513Z,19.70
2018-04-29T21:29:44.794Z,19.60
2018-04-29T21:32:13.039Z,19.40
2018-04-29T21:34:42.833Z,19.20
2018-04-29T21:37:11.078Z,19.10
2018-04-29T21:39:40.103Z,19.00
2018-04-29T21:42:08.364Z,19.00
2018-04-29T21:44:37.427Z,19.00
2018-04-29T21:47:05.688Z,18.90
2018-04-29T21:49:33.966Z,19.00
2018-04-29T21:52:02.242Z,19.00
2018-04-29T21:54:31.225Z,18.90
2018-04-29T21:57:00.659Z,18.90
2018-04-29T21:59:28.878Z,18.80
2018-04-29T22:01:57.144Z,18.90
2018-04-29T22:04:26.150Z,18.80
2018-04-29T22:06:55.260Z,18.80
2018-04-29T22:09:24.267Z,18.90
2018-04-29T22:11:53.287Z,18.80
2018-04-29T22:14:21.521Z,18.80
2018-04-29T22:16:49.849Z,18.80
2018-04-29T22:19:18.855Z,18.70
2018-04-29T22:21:47.170Z,18.60
2018-04-29T22:24:15.408Z,18.60
2018-04-29T22:26:43.678Z,18.50
2018-04-29T22:29:12.034Z,18.40
2018-04-29T22:31:40.386Z,18.30
2018-04-29T22:34:09.320Z,18.20
2018-04-29T22:36:37.596Z,18.20
2018-04-29T22:39:06.610Z,18.10
2018-04-29T22:41:35.679Z,18.10
2018-04-29T22:44:03.919Z,18.00
2018-04-29T22:46:32.183Z,18.00
2018-04-29T22:49:01.300Z,17.80
2018-04-29T22:51:30.419Z,17.70
2018-04-29T22:53:59.414Z,17.70
2018-04-29T22:56:28.810Z,17.50
2018-04-29T22:58:57.072Z,17.50
2018-04-29T23:01:25.324Z,17.60
2018-04-29T23:03:53.709Z,17.50
2018-04-29T23:06:22.804Z,17.50
2018-04-29T23:08:51.822Z,17.50
2018-04-29T23:11:20.887Z,17.40
2018-04-29T23:13:49.123Z,17.40
2018-04-29T23:16:17.395Z,17.40
2018-04-29T23:18:46.396Z,17.40
2018-04-29T23:21:14.647Z,17.30
2018-04-29T23:23:42.994Z,17.40
2018-04-29T23:26:12.045Z,17.50
2018-04-29T23:28:40.331Z,17.50
2018-04-29T23:31:08.654Z,17.40
2018-04-29T23:33:36.895Z,17.30
2018-04-29T23:36:05.157Z,17.20
2018-04-29T23:38:34.155Z,16.90
2018-04-29T23:41:03.165Z,16.80
2018-04-29T23:43:32.200Z,16.60
2018-04-29T23:46:00.454Z,16.60
2018-04-29T23:48:29.492Z,16.40
2018-04-29T23:50:57.747Z,16.40
2018-04-29T23:53:26.776Z,16.20
2018-04-29T23:55:55.022Z,16.10
2018-04-29T23:58:23.334Z,16.10
